createdAt,value
2017-03-05T00:00:55.576Z,936.25
2017-03-05T00:01:55.565Z,936.2
2017-03-05T00:02:55.555Z,936.36
2017-03-05T00:03:55.543Z,936.34
2017-03-05T00:04:55.534Z,936.38
2017-03-05T00:05:55.524Z,936.4
2017-03-05T00:06:55.511Z,936.38
2017-03-05T00:07:55.500Z,936.41
2017-03-05T00:08:55.490Z,936.42
2017-03-05T00:09:55.480Z,936.4
2017-03-05T00:10:55.468Z,936.51
2017-03-05T00:11:55.457Z,936.45
2017-03-05T00:12:55.449Z,936.54
2017-03-05T00:13:55.438Z,936.52
2017-03-05T00:14:55.424Z,936.57
2017-03-05T00:15:55.414Z,936.58
2017-03-05T00:16:55.403Z,936.59
2017-03-05T00:17:55.392Z,936.61
2017-03-05T00:18:55.382Z,936.6
2017-03-05T00:19:55.370Z,936.71
2017-03-05T00:20:55.360Z,936.67
2017-03-05T00:21:55.349Z,936.67
2017-03-05T00:22:55.337Z,936.71
2017-03-05T00:23:55.326Z,936.75
2017-03-05T00:24:55.317Z,936.82
2017-03-05T00:25:55.304Z,936.84
2017-03-05T00:26:55.294Z,936.89
2017-03-05T00:27:55.281Z,936.92
2017-03-05T00:28:55.271Z,936.93
2017-03-05T00:29:55.260Z,936.93
2017-03-05T00:30:55.249Z,936.91
2017-03-05T00:31:55.237Z,936.89
2017-03-05T00:32:55.225Z,936.91
2017-03-05T00:33:55.214Z,936.92
2017-03-05T00:34:55.203Z,937.03
2017-03-05T00:35:55.194Z,937.04
2017-03-05T00:36:55.182Z,937.04
2017-03-05T00:37:55.170Z,937.08
2017-03-05T00:38:55.158Z,937.09
2017-03-05T00:39:55.146Z,937.16
2017-03-05T00:40:55.139Z,937.12
2017-03-05T00:41:55.125Z,937.19
2017-03-05T00:42:55.114Z,937.2
2017-03-05T00:43:55.102Z,937.18
2017-03-05T00:44:55.090Z,937.14
2017-03-05T00:45:55.080Z,937.19
2017-03-05T00:46:55.068Z,937.23
2017-03-05T00:47:55.056Z,937.19
2017-03-05T00:48:55.046Z,937.15
2017-03-05T00:49:55.034Z,937.15
2017-03-05T00:50:55.024Z,937.21
2017-03-05T00:51:55.011Z,937.25
2017-03-05T00:52:55.000Z,937.27
2017-03-05T00:53:54.990Z,937.25
2017-03-05T00:54:54.977Z,937.31
2017-03-05T00:55:54.967Z,937.32
2017-03-05T00:56:54.955Z,937.33
2017-03-05T00:57:54.945Z,937.26
2017-03-05T00:58:54.931Z,937.37
2017-03-05T00:59:54.950Z,937.39
2017-03-05T01:00:54.909Z,937.35
2017-03-05T01:01:54.896Z,937.39
2017-03-05T01:02:54.887Z,937.4
2017-03-05T01:03:54.874Z,937.38
2017-03-05T01:04:54.867Z,937.45
2017-03-05T01:05:54.851Z,937.37
2017-03-05T01:06:54.840Z,937.41
2017-03-05T01:07:54.828Z,937.4
2017-03-05T01:08:54.817Z,937.39
2017-03-05T01:09:54.805Z,937.42
2017-03-05T01:10:54.795Z,937.49
2017-03-05T01:11:54.782Z,937.35
2017-03-05T01:12:54.771Z,937.4
2017-03-05T01:13:54.760Z,937.39
2017-03-05T01:14:54.748Z,937.44
2017-03-05T01:15:54.737Z,937.45
2017-03-05T01:16:54.724Z,937.4
2017-03-05T01:17:54.713Z,937.43
2017-03-05T01:18:54.702Z,937.42
2017-03-05T01:19:54.690Z,937.4
2017-03-05T01:20:54.680Z,937.41
2017-03-05T01:21:54.668Z,937.43
2017-03-05T01:22:54.658Z,937.32
2017-03-05T01:23:54.645Z,937.32
2017-03-05T01:24:54.634Z,937.36
2017-03-05T01:25:54.623Z,937.37
2017-03-05T01:26:54.611Z,937.35
2017-03-05T01:27:54.598Z,937.39
2017-03-05T01:28:54.588Z,937.44
2017-03-05T01:29:54.576Z,937.44
2017-03-05T01:30:54.563Z,937.39
2017-03-05T01:31:54.551Z,937.42
2017-03-05T01:32:54.539Z,937.55
2017-03-05T01:33:54.527Z,937.45
2017-03-05T01:34:54.516Z,937.46
2017-03-05T01:35:54.504Z,937.46
2017-03-05T01:36:54.493Z,937.47
2017-03-05T01:37:54.482Z,937.48
2017-03-05T01:38:54.469Z,937.56
2017-03-05T01:39:54.456Z,937.49
2017-03-05T01:40:54.445Z,937.48
2017-03-05T01:41:54.434Z,937.51
2017-03-05T01:42:54.422Z,937.49
2017-03-05T01:43:54.410Z,937.51
2017-03-05T01:44:54.398Z,937.48
2017-03-05T01:45:54.386Z,937.44
2017-03-05T01:46:54.374Z,937.44
2017-03-05T01:47:54.363Z,937.53
2017-03-05T01:48:54.349Z,937.51
2017-03-05T01:49:54.337Z,937.51
2017-03-05T01:50:54.327Z,937.5
2017-03-05T01:51:54.316Z,937.5
2017-03-05T01:52:54.302Z,937.44
2017-03-05T01:53:54.289Z,937.51
2017-03-05T01:54:54.279Z,937.49
2017-03-05T01:55:54.268Z,937.48
2017-03-05T01:56:54.254Z,937.58
2017-03-05T01:57:54.243Z,937.56
2017-03-05T01:58:54.230Z,937.52
2017-03-05T01:59:54.218Z,937.5
2017-03-05T02:00:54.206Z,937.5
2017-03-05T02:01:54.195Z,937.51
2017-03-05T02:02:54.182Z,937.49
2017-03-05T02:03:54.168Z,937.51
2017-03-05T02:04:54.157Z,937.48
2017-03-05T02:05:54.145Z,937.54
2017-03-05T02:06:54.133Z,937.49
2017-03-05T02:07:54.120Z,937.48
2017-03-05T02:08:54.110Z,937.49
2017-03-05T02:09:54.096Z,937.55
2017-03-05T02:10:54.084Z,937.52
2017-03-05T02:11:54.071Z,937.56
2017-03-05T02:12:54.060Z,937.67
2017-03-05T02:13:54.047Z,937.6
2017-03-05T02:14:54.034Z,937.63
2017-03-05T02:15:54.024Z,937.59
2017-03-05T02:16:54.011Z,937.61
2017-03-05T02:17:53.999Z,937.59
2017-03-05T02:18:53.985Z,937.58
2017-03-05T02:19:53.974Z,937.63
2017-03-05T02:20:53.963Z,937.71
2017-03-05T02:21:53.952Z,937.74
2017-03-05T02:22:53.939Z,937.64
2017-03-05T02:23:53.928Z,937.61
2017-03-05T02:24:53.913Z,937.64
2017-03-05T02:25:53.902Z,937.6
2017-03-05T02:26:53.890Z,937.62
2017-03-05T02:27:53.879Z,937.49
2017-03-05T02:28:53.866Z,937.5
2017-03-05T02:29:53.854Z,937.62
2017-03-05T02:30:53.843Z,937.54
2017-03-05T02:31:53.831Z,937.53
2017-03-05T02:32:53.818Z,937.55
2017-03-05T02:33:53.805Z,937.61
2017-03-05T02:34:53.794Z,937.64
2017-03-05T02:35:53.783Z,937.43
2017-03-05T02:36:53.770Z,937.63
2017-03-05T02:37:53.757Z,937.55
2017-03-05T02:38:53.745Z,937.62
2017-03-05T02:39:53.735Z,937.7
2017-03-05T02:40:53.721Z,937.68
2017-03-05T02:41:53.709Z,937.64
2017-03-05T02:42:53.698Z,937.67
2017-03-05T02:43:53.686Z,937.7
2017-03-05T02:44:53.673Z,937.77
2017-03-05T02:45:53.663Z,937.74
2017-03-05T02:46:53.650Z,937.8
2017-03-05T02:47:53.636Z,937.68
2017-03-05T02:48:53.625Z,937.81
2017-03-05T02:49:53.613Z,937.87
2017-03-05T02:50:53.601Z,937.89
2017-03-05T02:51:53.589Z,937.92
2017-03-05T02:52:53.576Z,937.98
2017-03-05T02:53:53.564Z,937.95
2017-03-05T02:54:53.552Z,937.8
2017-03-05T02:55:53.540Z,937.98
2017-03-05T02:56:53.530Z,938
2017-03-05T02:57:53.518Z,937.93
2017-03-05T02:58:53.503Z,937.98
2017-03-05T02:59:53.496Z,938.07
2017-03-05T03:00:53.481Z,938
2017-03-05T03:01:53.468Z,937.98
2017-03-05T03:02:53.457Z,937.9
2017-03-05T03:03:53.444Z,937.93
2017-03-05T03:04:53.432Z,938.01
2017-03-05T03:05:53.426Z,938
2017-03-05T03:06:53.408Z,938.1
2017-03-05T03:07:53.396Z,938.09
2017-03-05T03:08:53.384Z,938.04
2017-03-05T03:09:53.372Z,938.13
2017-03-05T03:10:53.360Z,938.1
2017-03-05T03:11:53.347Z,938.05
2017-03-05T03:12:53.337Z,938.12
2017-03-05T03:13:53.324Z,938.16
2017-03-05T03:14:53.310Z,938.12
2017-03-05T03:15:53.302Z,938.19
2017-03-05T03:16:53.293Z,938.1
2017-03-05T03:17:53.274Z,938.19
2017-03-05T03:18:53.262Z,938.26
2017-03-05T03:19:53.250Z,938.27
2017-03-05T03:20:53.238Z,938.19
2017-03-05T03:21:53.225Z,938.3
2017-03-05T03:22:53.215Z,938.35
2017-03-05T03:23:53.202Z,938.28
2017-03-05T03:24:53.189Z,938.33
2017-03-05T03:25:53.179Z,938.31
2017-03-05T03:26:53.165Z,938.34
2017-03-05T03:27:53.152Z,938.42
2017-03-05T03:28:53.142Z,938.46
2017-03-05T03:29:53.128Z,938.35
2017-03-05T03:30:53.118Z,938.46
2017-03-05T03:31:53.103Z,938.47
2017-03-05T03:32:53.091Z,938.41
2017-03-05T03:33:53.080Z,938.42
2017-03-05T03:34:53.069Z,938.46
2017-03-05T03:35:53.055Z,938.54
2017-03-05T03:36:53.044Z,938.55
2017-03-05T03:37:53.031Z,938.51
2017-03-05T03:38:53.020Z,938.6
2017-03-05T03:39:53.007Z,938.63
2017-03-05T03:40:52.995Z,938.72
2017-03-05T03:41:52.982Z,938.63
2017-03-05T03:42:52.970Z,938.71
2017-03-05T03:43:52.959Z,938.74
2017-03-05T03:44:52.946Z,938.69
2017-03-05T03:45:52.935Z,938.84
2017-03-05T03:46:52.922Z,938.83
2017-03-05T03:47:52.909Z,938.91
2017-03-05T03:48:52.898Z,938.83
2017-03-05T03:49:52.885Z,938.92
2017-03-05T03:50:52.872Z,938.87
2017-03-05T03:51:52.861Z,938.89
2017-03-05T03:52:52.849Z,938.89
2017-03-05T03:53:52.836Z,938.79
2017-03-05T03:54:52.824Z,938.86
2017-03-05T03:55:52.812Z,938.86
2017-03-05T03:56:52.799Z,938.86
2017-03-05T03:57:52.788Z,938.9
2017-03-05T03:58:52.775Z,938.88
2017-03-05T03:59:52.764Z,938.94
2017-03-05T04:00:52.750Z,938.94
2017-03-05T04:01:52.738Z,938.94
2017-03-05T04:02:52.726Z,938.92
2017-03-05T04:03:52.714Z,938.97
2017-03-05T04:04:52.703Z,938.98
2017-03-05T04:05:52.689Z,939.07
2017-03-05T04:06:52.678Z,939.04
2017-03-05T04:07:52.665Z,939.05
2017-03-05T04:08:52.653Z,939.12
2017-03-05T04:09:52.640Z,939.17
2017-03-05T04:10:52.630Z,939.12
2017-03-05T04:11:52.616Z,939.11
2017-03-05T04:12:52.605Z,939.18
2017-03-05T04:13:52.593Z,939.16
2017-03-05T04:14:52.581Z,939.21
2017-03-05T04:15:52.569Z,939.2
2017-03-05T04:16:52.556Z,939.31
2017-03-05T04:17:52.543Z,939.2
2017-03-05T04:18:52.532Z,939.16
2017-03-05T04:19:52.518Z,939.24
2017-03-05T04:20:52.508Z,939.22
2017-03-05T04:21:52.495Z,939.2
2017-03-05T04:22:52.481Z,939.28
2017-03-05T04:23:52.471Z,939.24
2017-03-05T04:24:52.458Z,939.25
2017-03-05T04:25:52.447Z,939.32
2017-03-05T04:26:52.433Z,939.3
2017-03-05T04:27:52.421Z,939.31
2017-03-05T04:28:52.409Z,939.38
2017-03-05T04:29:52.396Z,939.46
2017-03-05T04:30:52.385Z,939.36
2017-03-05T04:31:52.373Z,939.43
2017-03-05T04:32:52.360Z,939.37
2017-03-05T04:33:52.347Z,939.48
2017-03-05T04:34:52.335Z,939.41
2017-03-05T04:35:52.322Z,939.46
2017-03-05T04:36:52.312Z,939.48
2017-03-05T04:37:52.296Z,939.36
2017-03-05T04:38:52.285Z,939.48
2017-03-05T04:39:52.300Z,939.48
2017-03-05T04:40:52.259Z,939.5
2017-03-05T04:41:52.248Z,939.52
2017-03-05T04:42:52.235Z,939.56
2017-03-05T04:43:52.223Z,939.56
2017-03-05T04:44:52.210Z,939.58
2017-03-05T04:45:52.198Z,939.56
2017-03-05T04:46:52.184Z,939.6
2017-03-05T04:47:52.172Z,939.68
2017-03-05T04:48:52.161Z,939.65
2017-03-05T04:49:52.147Z,939.65
2017-03-05T04:50:52.135Z,939.72
2017-03-05T04:51:52.122Z,939.67
2017-03-05T04:52:52.110Z,939.72
2017-03-05T04:53:52.097Z,939.7
2017-03-05T04:54:52.084Z,939.76
2017-03-05T04:55:52.071Z,939.77
2017-03-05T04:56:52.058Z,939.74
2017-03-05T04:57:52.046Z,939.82
2017-03-05T04:58:52.035Z,939.81
2017-03-05T04:59:52.021Z,939.89
2017-03-05T05:00:52.009Z,939.94
2017-03-05T05:01:51.996Z,939.89
2017-03-05T05:02:51.981Z,939.93
2017-03-05T05:03:51.970Z,939.86
2017-03-05T05:04:51.958Z,939.94
2017-03-05T05:05:51.945Z,939.92
2017-03-05T05:06:51.932Z,939.88
2017-03-05T05:07:51.919Z,939.97
2017-03-05T05:08:51.907Z,939.98
2017-03-05T05:09:51.894Z,940.01
2017-03-05T05:10:51.881Z,940.04
2017-03-05T05:11:51.868Z,940.03
2017-03-05T05:12:51.856Z,940.05
2017-03-05T05:13:51.843Z,940.1
2017-03-05T05:14:51.829Z,940.08
2017-03-05T05:15:51.817Z,940.04
2017-03-05T05:16:51.804Z,940.05
2017-03-05T05:17:51.792Z,940.15
2017-03-05T05:18:51.779Z,940.15
2017-03-05T05:19:51.765Z,940.11
2017-03-05T05:20:51.753Z,940.13
2017-03-05T05:21:51.740Z,940.1
2017-03-05T05:22:51.726Z,940.15
2017-03-05T05:23:51.714Z,940.17
2017-03-05T05:24:51.700Z,940.18
2017-03-05T05:25:51.688Z,940.23
2017-03-05T05:26:51.675Z,940.26
2017-03-05T05:27:51.662Z,940.31
2017-03-05T05:28:51.649Z,940.28
2017-03-05T05:29:51.635Z,940.31
2017-03-05T05:30:51.623Z,940.31
2017-03-05T05:31:51.610Z,940.32
2017-03-05T05:32:51.595Z,940.39
2017-03-05T05:33:51.596Z,940.38
2017-03-05T05:34:51.571Z,940.41
2017-03-05T05:35:51.557Z,940.37
2017-03-05T05:36:51.543Z,940.4
2017-03-05T05:37:51.531Z,940.4
2017-03-05T05:38:51.517Z,940.48
2017-03-05T05:39:51.503Z,940.49
2017-03-05T05:40:51.490Z,940.51
2017-03-05T05:41:51.480Z,940.53
2017-03-05T05:42:51.463Z,940.51
2017-03-05T05:43:51.451Z,940.61
2017-03-05T05:44:51.440Z,940.63
2017-03-05T05:45:51.423Z,940.58
2017-03-05T05:46:51.412Z,940.62
2017-03-05T05:47:51.397Z,940.7
2017-03-05T05:48:51.386Z,940.79
2017-03-05T05:49:51.373Z,940.78
2017-03-05T05:50:51.359Z,940.88
2017-03-05T05:51:51.345Z,940.92
2017-03-05T05:52:51.332Z,940.85
2017-03-05T05:53:51.320Z,940.95
2017-03-05T05:54:51.304Z,940.97
2017-03-05T05:55:51.291Z,941.02
2017-03-05T05:56:51.278Z,941
2017-03-05T05:57:51.266Z,941.01
2017-03-05T05:58:51.251Z,941.02
2017-03-05T05:59:51.239Z,941.07
2017-03-05T06:00:51.224Z,941.08
2017-03-05T06:01:51.210Z,941.08
2017-03-05T06:02:51.197Z,941.09
2017-03-05T06:03:51.183Z,941.19
2017-03-05T06:04:51.172Z,941.21
2017-03-05T06:05:51.159Z,941.25
2017-03-05T06:06:51.145Z,941.35
2017-03-05T06:07:51.135Z,941.32
2017-03-05T06:08:51.117Z,941.28
2017-03-05T06:09:51.105Z,941.27
2017-03-05T06:10:51.091Z,941.31
2017-03-05T06:11:51.079Z,941.34
2017-03-05T06:12:51.066Z,941.31
2017-03-05T06:13:51.050Z,941.33
2017-03-05T06:14:51.036Z,941.34
2017-03-05T06:15:51.024Z,941.4
2017-03-05T06:16:51.011Z,941.39
2017-03-05T06:17:50.996Z,941.39
2017-03-05T06:18:50.983Z,941.43
2017-03-05T06:19:50.969Z,941.44
2017-03-05T06:20:50.956Z,941.5
2017-03-05T06:21:50.943Z,941.52
2017-03-05T06:22:50.929Z,941.51
2017-03-05T06:23:50.915Z,941.48
2017-03-05T06:24:50.902Z,941.56
2017-03-05T06:25:50.889Z,941.54
2017-03-05T06:26:50.875Z,941.55
2017-03-05T06:27:50.861Z,941.62
2017-03-05T06:28:50.850Z,941.59
2017-03-05T06:29:50.836Z,941.65
2017-03-05T06:30:50.821Z,941.63
2017-03-05T06:31:50.808Z,941.7
2017-03-05T06:32:50.795Z,941.72
2017-03-05T06:33:50.783Z,941.71
2017-03-05T06:34:50.769Z,941.69
2017-03-05T06:35:50.756Z,941.77
2017-03-05T06:36:50.743Z,941.77
2017-03-05T06:37:50.728Z,941.73
2017-03-05T06:38:50.740Z,941.74
2017-03-05T06:39:50.703Z,941.72
2017-03-05T06:40:50.690Z,941.74
2017-03-05T06:41:50.675Z,941.77
2017-03-05T06:42:50.662Z,941.72
2017-03-05T06:43:50.649Z,941.74
2017-03-05T06:44:50.637Z,941.72
2017-03-05T06:45:50.623Z,941.72
2017-03-05T06:46:50.610Z,941.78
2017-03-05T06:47:50.596Z,941.79
2017-03-05T06:48:50.583Z,941.84
2017-03-05T06:49:50.571Z,941.79
2017-03-05T06:50:50.557Z,941.86
2017-03-05T06:51:50.543Z,941.91
2017-03-05T06:52:50.529Z,941.82
2017-03-05T06:53:50.518Z,941.87
2017-03-05T06:54:50.506Z,941.87
2017-03-05T06:55:50.493Z,941.91
2017-03-05T06:56:50.478Z,941.87
2017-03-05T06:57:50.465Z,941.94
2017-03-05T06:58:50.453Z,941.9
2017-03-05T06:59:50.439Z,941.79
2017-03-05T07:00:50.426Z,941.87
2017-03-05T07:01:50.413Z,941.83
2017-03-05T07:02:50.402Z,941.79
2017-03-05T07:03:50.387Z,941.81
2017-03-05T07:04:50.375Z,941.8
2017-03-05T07:05:50.362Z,941.89
2017-03-05T07:06:50.349Z,941.84
2017-03-05T07:07:50.335Z,941.92
2017-03-05T07:08:50.323Z,941.9
2017-03-05T07:09:50.311Z,941.89
2017-03-05T07:10:50.297Z,941.89
2017-03-05T07:11:50.284Z,941.92
2017-03-05T07:12:50.272Z,941.91
2017-03-05T07:13:50.258Z,941.97
2017-03-05T07:14:50.246Z,941.96
2017-03-05T07:15:50.238Z,941.94
2017-03-05T07:16:50.221Z,941.97
2017-03-05T07:17:50.208Z,941.97
2017-03-05T07:18:50.196Z,941.99
2017-03-05T07:19:50.182Z,942.07
2017-03-05T07:20:50.170Z,942.03
2017-03-05T07:21:50.157Z,941.97
2017-03-05T07:22:50.144Z,942.04
2017-03-05T07:23:50.144Z,942.02
2017-03-05T07:24:50.119Z,942.1
2017-03-05T07:25:50.106Z,942.01
2017-03-05T07:26:50.094Z,942.03
2017-03-05T07:27:50.081Z,942.06
2017-03-05T07:28:50.069Z,942.05
2017-03-05T07:29:50.057Z,942.03
2017-03-05T07:30:50.042Z,942.07
2017-03-05T07:31:50.031Z,942.08
2017-03-05T07:32:50.017Z,942.09
2017-03-05T07:33:50.005Z,942.1
2017-03-05T07:34:49.992Z,942.07
2017-03-05T07:35:49.980Z,942.1
2017-03-05T07:36:49.966Z,942.01
2017-03-05T07:37:49.955Z,942.03
2017-03-05T07:38:49.942Z,942.03
2017-03-05T07:39:49.929Z,942.08
2017-03-05T07:40:49.918Z,942.04
2017-03-05T07:41:49.906Z,942.04
2017-03-05T07:42:49.893Z,942.13
2017-03-05T07:43:49.879Z,942.09
2017-03-05T07:44:49.867Z,942.19
2017-03-05T07:45:49.855Z,942.13
2017-03-05T07:46:49.843Z,942.15
2017-03-05T07:47:49.829Z,942.11
2017-03-05T07:48:49.818Z,942.12
2017-03-05T07:49:49.808Z,942.17
2017-03-05T07:50:49.792Z,942.14
2017-03-05T07:51:49.781Z,942.14
2017-03-05T07:52:49.768Z,942.23
2017-03-05T07:53:49.755Z,942.22
2017-03-05T07:54:49.751Z,942.18
2017-03-05T07:55:49.731Z,942.19
2017-03-05T07:56:49.718Z,942.2
2017-03-05T07:57:49.708Z,942.19
2017-03-05T07:58:49.693Z,942.24
2017-03-05T07:59:49.681Z,942.22
2017-03-05T08:00:49.670Z,942.21
2017-03-05T08:01:49.659Z,942.19
2017-03-05T08:02:49.645Z,942.22
2017-03-05T08:03:49.634Z,942.13
2017-03-05T08:04:49.621Z,942.16
2017-03-05T08:05:49.613Z,942.15
2017-03-05T08:06:49.598Z,942.17
2017-03-05T08:07:49.585Z,942.15
2017-03-05T08:08:49.574Z,942.09
2017-03-05T08:09:49.562Z,942.11
2017-03-05T08:10:49.552Z,942.17
2017-03-05T08:11:49.538Z,942.15
2017-03-05T08:12:49.526Z,942.14
2017-03-05T08:13:49.582Z,942.18
2017-03-05T08:14:49.503Z,942.15
2017-03-05T08:15:49.491Z,942.1
2017-03-05T08:16:49.479Z,942.13
2017-03-05T08:17:49.468Z,942.07
2017-03-05T08:18:49.708Z,942.1
2017-03-05T08:19:49.446Z,942.1
2017-03-05T08:20:49.432Z,942.16
2017-03-05T08:21:49.420Z,942.14
2017-03-05T08:22:49.410Z,942.25
2017-03-05T08:23:49.605Z,942.21
2017-03-05T08:24:49.386Z,942.11
2017-03-05T08:25:49.379Z,942.17
2017-03-05T08:26:49.363Z,942.1
2017-03-05T08:27:49.350Z,942.03
2017-03-05T08:28:49.455Z,942.17
2017-03-05T08:29:49.328Z,942.29
2017-03-05T08:30:49.318Z,942.17
2017-03-05T08:31:49.305Z,942.26
2017-03-05T08:32:49.293Z,942.3
2017-03-05T08:33:49.472Z,942.31
2017-03-05T08:34:49.269Z,942.3
2017-03-05T08:35:49.260Z,942.36
2017-03-05T08:36:49.255Z,942.29
2017-03-05T08:37:49.238Z,942.29
2017-03-05T08:38:49.390Z,942.28
2017-03-05T08:39:49.215Z,942.22
2017-03-05T08:40:49.203Z,942.26
2017-03-05T08:41:49.207Z,942.25
2017-03-05T08:42:49.180Z,942.25
2017-03-05T08:43:49.219Z,942.25
2017-03-05T08:44:49.160Z,942.19
2017-03-05T08:45:49.147Z,942.23
2017-03-05T08:46:49.136Z,942.23
2017-03-05T08:47:49.127Z,942.3
2017-03-05T08:48:49.116Z,942.27
2017-03-05T08:49:49.104Z,942.32
2017-03-05T08:50:49.092Z,942.31
2017-03-05T08:51:49.179Z,942.32
2017-03-05T08:52:49.072Z,942.26
2017-03-05T08:53:49.177Z,942.21
2017-03-05T08:54:49.050Z,942.23
2017-03-05T08:55:49.038Z,942.17
2017-03-05T08:56:49.027Z,942.23
2017-03-05T08:57:49.016Z,942.23
2017-03-05T08:58:49.269Z,942.3
2017-03-05T08:59:48.995Z,942.3
2017-03-05T09:00:48.985Z,942.21
2017-03-05T09:01:48.974Z,942.19
2017-03-05T09:02:48.961Z,942.24
2017-03-05T09:03:49.140Z,942.25
2017-03-05T09:04:48.941Z,942.26
2017-03-05T09:05:48.929Z,942.22
2017-03-05T09:06:48.920Z,942.23
2017-03-05T09:07:48.908Z,942.25
2017-03-05T09:08:48.898Z,942.23
2017-03-05T09:09:48.888Z,942.24
2017-03-05T09:10:48.966Z,942.22
2017-03-05T09:11:48.868Z,942.2
2017-03-05T09:12:48.857Z,942.23
2017-03-05T09:13:48.849Z,942.23
2017-03-05T09:14:48.837Z,942.22
2017-03-05T09:15:48.899Z,942.26
2017-03-05T09:16:48.817Z,942.27
2017-03-05T09:17:48.807Z,942.24
2017-03-05T09:18:48.797Z,942.31
2017-03-05T09:19:48.788Z,942.25
2017-03-05T09:20:48.810Z,942.3
2017-03-05T09:21:48.768Z,942.31
2017-03-05T09:22:48.758Z,942.27
2017-03-05T09:23:48.749Z,942.29
2017-03-05T09:24:48.739Z,942.27
2017-03-05T09:25:48.779Z,942.29
2017-03-05T09:26:48.720Z,942.21
2017-03-05T09:27:48.711Z,942.3
2017-03-05T09:28:48.701Z,942.34
2017-03-05T09:29:48.690Z,942.35
2017-03-05T09:30:48.808Z,942.36
2017-03-05T09:31:48.672Z,942.39
2017-03-05T09:32:48.666Z,942.39
2017-03-05T09:33:48.653Z,942.4
2017-03-05T09:34:48.643Z,942.28
2017-03-05T09:35:48.693Z,942.38
2017-03-05T09:36:48.624Z,942.39
2017-03-05T09:37:48.615Z,942.33
2017-03-05T09:38:48.609Z,942.35
2017-03-05T09:39:48.596Z,942.31
2017-03-05T09:40:48.698Z,942.37
2017-03-05T09:41:48.577Z,942.31
2017-03-05T09:42:48.568Z,942.43
2017-03-05T09:43:48.559Z,942.37
2017-03-05T09:44:48.550Z,942.46
2017-03-05T09:45:48.694Z,942.43
2017-03-05T09:46:48.531Z,942.47
2017-03-05T09:47:48.563Z,942.43
2017-03-05T09:48:48.512Z,942.49
2017-03-05T09:49:48.503Z,942.42
2017-03-05T09:50:48.493Z,942.51
2017-03-05T09:51:48.483Z,942.46
2017-03-05T09:52:48.568Z,942.48
2017-03-05T09:53:48.466Z,942.42
2017-03-05T09:54:48.485Z,942.51
2017-03-05T09:55:48.447Z,942.49
2017-03-05T09:56:48.435Z,942.55
2017-03-05T09:57:48.427Z,942.52
2017-03-05T09:58:48.417Z,942.54
2017-03-05T09:59:48.452Z,942.55
2017-03-05T10:00:48.397Z,942.55
2017-03-05T10:01:48.389Z,942.53
2017-03-05T10:02:48.378Z,942.49
2017-03-05T10:03:48.368Z,942.52
2017-03-05T10:04:48.439Z,942.53
2017-03-05T10:05:48.349Z,942.52
2017-03-05T10:06:48.344Z,942.5
2017-03-05T10:07:48.330Z,942.49
2017-03-05T10:08:48.320Z,942.52
2017-03-05T10:09:48.397Z,942.52
2017-03-05T10:10:48.299Z,942.51
2017-03-05T10:11:48.422Z,942.48
2017-03-05T10:12:48.280Z,942.57
2017-03-05T10:13:48.370Z,942.57
2017-03-05T10:14:48.261Z,942.54
2017-03-05T10:15:48.250Z,942.55
2017-03-05T10:16:48.240Z,942.56
2017-03-05T10:17:48.229Z,942.52
2017-03-05T10:18:48.439Z,942.52
2017-03-05T10:19:48.210Z,942.51
2017-03-05T10:20:48.291Z,942.51
2017-03-05T10:21:48.190Z,942.56
2017-03-05T10:22:48.180Z,942.51
2017-03-05T10:23:48.170Z,942.47
2017-03-05T10:24:48.159Z,942.52
2017-03-05T10:25:48.253Z,942.44
2017-03-05T10:26:48.139Z,942.47
2017-03-05T10:27:48.132Z,942.5
2017-03-05T10:28:48.120Z,942.46
2017-03-05T10:29:48.128Z,942.47
2017-03-05T10:30:48.100Z,942.47
2017-03-05T10:31:48.089Z,942.51
2017-03-05T10:32:48.141Z,942.46
2017-03-05T10:33:48.070Z,942.53
2017-03-05T10:34:48.065Z,942.46
2017-03-05T10:35:48.050Z,942.48
2017-03-05T10:36:48.067Z,942.41
2017-03-05T10:37:48.106Z,942.51
2017-03-05T10:38:48.019Z,942.54
2017-03-05T10:39:48.139Z,942.53
2017-03-05T10:40:47.999Z,942.52
2017-03-05T10:41:48.110Z,942.5
2017-03-05T10:42:47.978Z,942.45
2017-03-05T10:43:47.993Z,942.5
2017-03-05T10:44:47.958Z,942.55
2017-03-05T10:45:47.949Z,942.51
2017-03-05T10:46:48.008Z,942.53
2017-03-05T10:47:47.927Z,942.48
2017-03-05T10:48:48.030Z,942.52
2017-03-05T10:49:47.908Z,942.44
2017-03-05T10:50:48.010Z,942.44
2017-03-05T10:51:47.894Z,942.44
2017-03-05T10:52:47.878Z,942.5
2017-03-05T10:53:47.992Z,942.52
2017-03-05T10:54:47.858Z,942.48
2017-03-05T10:55:48.004Z,942.52
2017-03-05T10:56:47.838Z,942.56
2017-03-05T10:57:47.885Z,942.52
2017-03-05T10:58:47.817Z,942.52
2017-03-05T10:59:47.810Z,942.55
2017-03-05T11:00:47.798Z,942.54
2017-03-05T11:01:47.788Z,942.5
2017-03-05T11:02:47.777Z,942.5
2017-03-05T11:03:47.767Z,942.44
2017-03-05T11:04:47.756Z,942.43
2017-03-05T11:05:47.747Z,942.45
2017-03-05T11:06:47.737Z,942.44
2017-03-05T11:07:47.727Z,942.4
2017-03-05T11:08:47.717Z,942.39
2017-03-05T11:09:47.706Z,942.39
2017-03-05T11:10:47.697Z,942.39
2017-03-05T11:11:47.685Z,942.38
2017-03-05T11:12:47.679Z,942.36
2017-03-05T11:13:47.667Z,942.37
2017-03-05T11:14:47.657Z,942.34
2017-03-05T11:15:47.646Z,942.34
2017-03-05T11:16:47.637Z,942.36
2017-03-05T11:17:47.627Z,942.35
2017-03-05T11:18:47.619Z,942.28
2017-03-05T11:19:47.610Z,942.27
2017-03-05T11:20:47.598Z,942.28
2017-03-05T11:21:47.588Z,942.31
2017-03-05T11:22:47.579Z,942.29
2017-03-05T11:23:47.569Z,942.33
2017-03-05T11:24:47.561Z,942.27
2017-03-05T11:25:47.551Z,942.33
2017-03-05T11:26:47.542Z,942.28
2017-03-05T11:27:47.533Z,942.28
2017-03-05T11:28:47.527Z,942.28
2017-03-05T11:29:47.514Z,942.27
2017-03-05T11:30:47.504Z,942.28
2017-03-05T11:31:47.496Z,942.23
2017-03-05T11:32:47.488Z,942.28
2017-03-05T11:33:47.478Z,942.21
2017-03-05T11:34:47.468Z,942.16
2017-03-05T11:35:47.459Z,942.14
2017-03-05T11:36:47.451Z,942.13
2017-03-05T11:37:47.442Z,942.08
2017-03-05T11:38:47.433Z,942.11
2017-03-05T11:39:47.425Z,942.12
2017-03-05T11:40:47.418Z,942.14
2017-03-05T11:41:47.405Z,942.17
2017-03-05T11:42:47.397Z,942.09
2017-03-05T11:43:47.389Z,942.18
2017-03-05T11:44:47.382Z,942.2
2017-03-05T11:45:47.371Z,942.17
2017-03-05T11:46:47.366Z,942.14
2017-03-05T11:47:47.353Z,942.15
2017-03-05T11:48:47.345Z,942.17
2017-03-05T11:49:47.335Z,942.13
2017-03-05T11:50:47.326Z,942.08
2017-03-05T11:51:47.317Z,942.15
2017-03-05T11:52:47.307Z,942.09
2017-03-05T11:53:47.299Z,942.08
2017-03-05T11:54:47.290Z,942.1
2017-03-05T11:55:47.281Z,942.08
2017-03-05T11:56:47.271Z,942.09
2017-03-05T11:57:47.263Z,942.06
2017-03-05T11:58:47.271Z,942.02
2017-03-05T11:59:47.245Z,942.02
2017-03-05T12:00:47.237Z,942.05
2017-03-05T12:01:47.228Z,942.04
2017-03-05T12:02:47.218Z,942.09
2017-03-05T12:03:47.210Z,942.12
2017-03-05T12:04:47.201Z,942.06
2017-03-05T12:05:47.192Z,942.07
2017-03-05T12:06:47.184Z,942.08
2017-03-05T12:07:47.175Z,942.03
2017-03-05T12:08:47.166Z,942.01
2017-03-05T12:09:47.156Z,942.01
2017-03-05T12:10:47.146Z,942.05
2017-03-05T12:11:47.152Z,942.01
2017-03-05T12:12:47.129Z,941.96
2017-03-05T12:13:47.122Z,942.05
2017-03-05T12:14:47.113Z,942.02
2017-03-05T12:15:47.104Z,942.01
2017-03-05T12:16:47.097Z,942.03
2017-03-05T12:17:47.088Z,942.03
2017-03-05T12:18:47.079Z,942.02
2017-03-05T12:19:47.070Z,941.97
2017-03-05T12:20:47.063Z,941.88
2017-03-05T12:21:47.053Z,941.98
2017-03-05T12:22:47.209Z,941.91
2017-03-05T12:23:47.037Z,941.88
2017-03-05T12:24:47.031Z,941.85
2017-03-05T12:25:47.021Z,941.81
2017-03-05T12:26:47.012Z,941.81
2017-03-05T12:27:47.005Z,941.82
2017-03-05T12:28:46.994Z,941.75
2017-03-05T12:29:47.022Z,941.72
2017-03-05T12:30:46.979Z,941.68
2017-03-05T12:31:46.969Z,941.61